createdAt,value
2023-02-15T00:02:07.430Z,76.5
2023-02-15T00:03:22.169Z,86.6
2023-02-15T00:04:35.710Z,84.4
2023-02-15T00:09:32.232Z,74.5
2023-02-15T00:12:00.487Z,83.4
2023-02-15T00:14:28.742Z,75.4
2023-02-15T00:16:57.001Z,91.2
2023-02-15T00:19:25.256Z,89.3
2023-02-15T00:21:53.511Z,79.3
2023-02-15T00:24:21.776Z,90.4
2023-02-15T00:26:50.029Z,78.9
2023-02-15T00:28:04.761Z,91.9
2023-02-15T00:29:18.305Z,92.9
2023-02-15T00:31:46.565Z,89.2
2023-02-15T00:34:14.816Z,88.4
2023-02-15T00:36:43.075Z,94.7
2023-02-15T00:41:39.595Z,96.5
2023-02-15T00:44:07.848Z,92.9
2023-02-15T00:46:36.103Z,89.4
2023-02-15T00:49:04.363Z,97.6
2023-02-15T00:51:32.621Z,95.3
2023-02-15T00:52:47.359Z,109.4
2023-02-15T00:54:00.897Z,107.1
2023-02-15T00:56:29.153Z,74.3
2023-02-15T00:58:57.416Z,94.8
2023-02-15T01:01:25.673Z,92.6
2023-02-15T01:03:53.928Z,86.2
2023-02-15T01:06:22.180Z,100.6
2023-02-15T01:08:50.446Z,67.5
2023-02-15T01:13:46.953Z,80.3
2023-02-15T01:16:15.215Z,89
2023-02-15T01:17:29.945Z,74.6
2023-02-15T01:18:43.495Z,94.7
2023-02-15T01:21:11.751Z,99.6
2023-02-15T01:23:40.008Z,96.7
2023-02-15T01:26:08.266Z,76.8
2023-02-15T01:28:36.524Z,95.6
2023-02-15T01:31:04.776Z,95.4
2023-02-15T01:33:33.039Z,100.4
2023-02-15T01:36:01.291Z,81.7
2023-02-15T01:38:29.552Z,84.3
2023-02-15T01:40:57.807Z,85
2023-02-15T01:43:26.067Z,74.8
2023-02-15T01:45:54.324Z,72.4
2023-02-15T01:48:22.580Z,83.8
2023-02-15T01:50:50.837Z,74
2023-02-15T01:53:19.090Z,79.8
2023-02-15T01:55:47.349Z,72.5
2023-02-15T01:58:15.606Z,114.4
2023-02-15T02:00:43.868Z,73.8
2023-02-15T02:03:12.123Z,90.4
2023-02-15T02:05:40.383Z,97.7
2023-02-15T02:06:55.134Z,99.8
2023-02-15T02:08:08.675Z,89.5
2023-02-15T02:10:36.932Z,84.3
2023-02-15T02:15:33.455Z,89.6
2023-02-15T02:18:01.709Z,95
2023-02-15T02:20:29.969Z,86.6
2023-02-15T02:22:58.221Z,106.2
2023-02-15T02:25:26.483Z,81.8
2023-02-15T02:27:54.745Z,102.7
2023-02-15T02:30:23.001Z,91.1
2023-02-15T02:31:37.729Z,95.2
2023-02-15T02:32:51.278Z,86.8
2023-02-15T02:35:19.529Z,98.3
2023-02-15T02:37:47.785Z,94.3
2023-02-15T02:40:16.043Z,98.3
2023-02-15T02:42:44.301Z,101.2
2023-02-15T02:47:40.821Z,101.3
2023-02-15T02:50:09.072Z,96.9
2023-02-15T02:52:37.338Z,79.2
2023-02-15T02:55:05.600Z,83.6
2023-02-15T02:56:20.324Z,117.7
2023-02-15T02:57:33.873Z,83
2023-02-15T03:00:02.126Z,81.4
2023-02-15T03:02:30.385Z,98.2
2023-02-15T03:04:58.640Z,83.7
2023-02-15T03:07:26.895Z,91.5
2023-02-15T03:09:55.153Z,80.1
2023-02-15T03:12:23.415Z,98.5
2023-02-15T03:14:51.674Z,80.1
2023-02-15T03:19:48.184Z,70.9
2023-02-15T03:21:02.923Z,77.3
2023-02-15T03:22:16.463Z,103.9
2023-02-15T03:24:44.721Z,87.2
2023-02-15T03:27:12.981Z,104.7
2023-02-15T03:29:41.233Z,75.2
2023-02-15T03:32:09.495Z,72.2
2023-02-15T03:34:37.752Z,84.4
2023-02-15T03:37:06.006Z,99
2023-02-15T03:39:34.260Z,89.7
2023-02-15T03:42:02.524Z,94.7
2023-02-15T03:44:30.780Z,100.9
2023-02-15T03:45:45.513Z,74.3
2023-02-15T03:49:27.547Z,99.8
2023-02-15T03:51:55.807Z,82.4
2023-02-15T03:54:24.065Z,88.5
2023-02-15T03:56:52.315Z,79.4
2023-02-15T03:59:20.575Z,94.6
2023-02-15T04:01:48.832Z,66.3
2023-02-15T04:04:17.086Z,65.4
2023-02-15T04:06:45.344Z,87.9
2023-02-15T04:09:13.604Z,72.9
2023-02-15T04:10:28.340Z,65.6
2023-02-15T04:11:41.881Z,69.3
2023-02-15T04:14:10.144Z,89.7
2023-02-15T04:16:38.394Z,77.1
2023-02-15T04:21:34.910Z,89.1
2023-02-15T04:24:03.169Z,61
2023-02-15T04:26:31.431Z,63.8
2023-02-15T04:28:59.683Z,75.4
2023-02-15T04:31:27.941Z,61.5
2023-02-15T04:33:56.203Z,62.4
2023-02-15T04:35:10.927Z,57.5
2023-02-15T04:36:24.472Z,64.9
2023-02-15T04:38:52.737Z,72.8
2023-02-15T04:41:20.996Z,77.3
2023-02-15T04:43:49.247Z,55.9
2023-02-15T04:46:17.507Z,59.6
2023-02-15T04:48:45.759Z,81.4
2023-02-15T04:53:42.280Z,81.1
2023-02-15T04:56:10.530Z,59
2023-02-15T04:58:38.790Z,60.8
2023-02-15T04:59:53.528Z,83.7
2023-02-15T05:01:07.066Z,67.8
2023-02-15T05:03:35.328Z,65.2
2023-02-15T05:06:03.583Z,76.2
2023-02-15T05:08:31.844Z,83.6
2023-02-15T05:11:00.097Z,76.6
2023-02-15T05:13:28.354Z,65.6
2023-02-15T05:15:56.618Z,91.1
2023-02-15T05:18:24.867Z,61.4
2023-02-15T05:20:53.125Z,90.8
2023-02-15T05:24:36.121Z,89.8
2023-02-15T05:25:49.667Z,70.3
2023-02-15T05:28:17.917Z,79.7
2023-02-15T05:30:46.175Z,67.3
2023-02-15T05:33:14.434Z,97.5
2023-02-15T05:35:42.693Z,74.5
2023-02-15T05:38:10.955Z,78.1
2023-02-15T05:40:39.207Z,63.5
2023-02-15T05:43:07.463Z,73.6
2023-02-15T05:45:35.727Z,89.2
2023-02-15T05:48:03.982Z,75.4
2023-02-15T05:49:18.712Z,78.7
2023-02-15T05:50:32.261Z,83.5
2023-02-15T05:55:28.768Z,63.5
2023-02-15T05:57:57.030Z,65.6
2023-02-15T06:00:25.288Z,59.2
2023-02-15T06:02:53.546Z,70.7
2023-02-15T06:05:21.804Z,62.2
2023-02-15T06:07:50.055Z,78.9
2023-02-15T06:10:18.317Z,69.6
2023-02-15T06:12:46.570Z,74.9
2023-02-15T06:14:01.306Z,62.2
2023-02-15T06:15:14.848Z,72.3
2023-02-15T06:17:43.108Z,81.1
2023-02-15T06:20:11.372Z,82.2
2023-02-15T06:22:39.628Z,94.9
2023-02-15T06:27:36.140Z,66.8
2023-02-15T06:30:04.401Z,74.6
2023-02-15T06:32:32.650Z,68.8
2023-02-15T06:35:00.912Z,58.4
2023-02-15T06:37:29.168Z,75.9
2023-02-15T06:38:43.906Z,74.6
2023-02-15T06:39:57.451Z,78.5
2023-02-15T06:42:25.705Z,60.6
2023-02-15T06:44:53.959Z,83.8
2023-02-15T06:47:22.215Z,61.7
2023-02-15T06:49:50.481Z,53.5
2023-02-15T06:52:18.735Z,56.5
2023-02-15T06:54:46.994Z,82.2
2023-02-15T06:59:43.506Z,81.7
2023-02-15T07:02:11.763Z,77.6
2023-02-15T07:03:26.492Z,84.4
2023-02-15T07:04:40.039Z,72.3
2023-02-15T07:07:08.296Z,67.1
2023-02-15T07:09:36.556Z,82
2023-02-15T07:12:04.809Z,75.6
2023-02-15T07:14:33.076Z,65.5
2023-02-15T07:17:01.327Z,84.2
2023-02-15T07:19:29.590Z,68.4
2023-02-15T07:21:57.844Z,58.8
2023-02-15T07:24:26.102Z,64.4
2023-02-15T07:26:54.356Z,64.8
2023-02-15T07:29:22.622Z,57.5
2023-02-15T07:31:50.876Z,77.7
2023-02-15T07:34:19.128Z,57.2
2023-02-15T07:36:47.393Z,62.4
2023-02-15T07:39:15.643Z,57.8
2023-02-15T07:41:43.901Z,60.6
2023-02-15T07:44:12.164Z,59.4
2023-02-15T07:46:40.420Z,51.6
2023-02-15T07:49:08.678Z,67.6
2023-02-15T07:51:36.931Z,66
2023-02-15T07:52:51.679Z,75.1
2023-02-15T07:54:05.230Z,72.7
2023-02-15T07:56:33.486Z,75
2023-02-15T08:01:30.005Z,89.9
2023-02-15T08:03:58.261Z,82.7
2023-02-15T08:06:26.518Z,67.7
2023-02-15T08:08:54.777Z,63
2023-02-15T08:11:23.033Z,77.7
2023-02-15T08:13:51.284Z,85.5
2023-02-15T08:16:19.540Z,83.4
2023-02-15T08:17:34.283Z,89.5
2023-02-15T08:18:47.820Z,73.6
2023-02-15T08:21:16.081Z,75.4
2023-02-15T08:23:44.337Z,74.8
2023-02-15T08:26:12.597Z,73.3
2023-02-15T08:28:40.851Z,77.7
2023-02-15T08:33:37.366Z,74.1
2023-02-15T08:36:05.626Z,72.2
2023-02-15T08:38:33.884Z,73.3
2023-02-15T08:41:02.135Z,74.3
2023-02-15T08:42:16.874Z,81.5
2023-02-15T08:43:30.410Z,87.2
2023-02-15T08:45:58.672Z,76.5
2023-02-15T08:48:26.928Z,70.3
2023-02-15T08:50:55.181Z,81.3
2023-02-15T08:53:23.443Z,68.8
2023-02-15T08:55:51.700Z,75
2023-02-15T08:58:19.956Z,82.3
2023-02-15T09:00:48.210Z,67.6
2023-02-15T09:05:44.729Z,86.2
2023-02-15T09:06:59.457Z,84.1
2023-02-15T09:08:13.007Z,67.4
2023-02-15T09:10:41.261Z,78
2023-02-15T09:13:09.517Z,90.6
2023-02-15T09:15:37.771Z,74.3
2023-02-15T09:18:06.027Z,76
2023-02-15T09:20:34.291Z,78.3
2023-02-15T09:23:02.551Z,81.7
2023-02-15T09:25:30.801Z,82
2023-02-15T09:27:59.060Z,79.8
2023-02-15T09:30:27.321Z,78.9
2023-02-15T09:31:42.052Z,90.7
2023-02-15T09:35:24.082Z,81.8
2023-02-15T09:37:52.346Z,82.7
2023-02-15T09:40:20.603Z,98.7
2023-02-15T09:42:48.859Z,70.1
2023-02-15T09:45:17.114Z,70.4
2023-02-15T09:47:45.371Z,83.5
2023-02-15T09:50:13.628Z,63
2023-02-15T09:52:41.882Z,78.5
2023-02-15T09:55:10.142Z,71.6
2023-02-15T09:56:24.878Z,82.8
2023-02-15T09:57:38.422Z,76.6
2023-02-15T10:00:06.677Z,75.2
2023-02-15T10:02:34.938Z,69.6
2023-02-15T10:07:31.454Z,70.2
2023-02-15T10:09:59.711Z,79.7
2023-02-15T10:12:27.961Z,66.9
2023-02-15T10:14:56.222Z,79.4
2023-02-15T10:17:24.482Z,89
2023-02-15T10:19:52.734Z,66.9
2023-02-15T10:21:07.466Z,83.8
2023-02-15T10:22:21.014Z,87.2
2023-02-15T10:24:49.267Z,79.5
2023-02-15T10:27:17.525Z,74.2
2023-02-15T10:29:45.787Z,87.8
2023-02-15T10:32:14.043Z,79.1
2023-02-15T10:34:42.299Z,76.4
2023-02-15T10:39:38.817Z,89
2023-02-15T10:42:07.068Z,71.2
2023-02-15T10:44:35.327Z,80.9
2023-02-15T10:45:50.063Z,69.4
2023-02-15T10:47:03.607Z,68.9
2023-02-15T10:49:31.869Z,75.4
2023-02-15T10:52:00.122Z,80.2
2023-02-15T10:54:28.384Z,79.1
2023-02-15T10:56:56.634Z,76.5
2023-02-15T10:59:24.894Z,88.1
2023-02-15T11:01:53.156Z,99
2023-02-15T11:04:21.408Z,89.5
2023-02-15T11:06:49.671Z,82.7
2023-02-15T11:10:32.655Z,95.9
2023-02-15T11:11:46.205Z,102.3
2023-02-15T11:14:14.458Z,105.2
2023-02-15T11:16:42.717Z,97.2
2023-02-15T11:19:10.974Z,93.4
2023-02-15T11:21:39.229Z,96.4
2023-02-15T11:24:07.484Z,90.6
2023-02-15T11:26:35.738Z,96.1
2023-02-15T11:29:04.002Z,85.3
2023-02-15T11:31:32.262Z,86.7
2023-02-15T11:34:00.518Z,89.8
2023-02-15T11:35:15.244Z,91.2
2023-02-15T11:36:28.793Z,84.6
2023-02-15T11:41:25.303Z,99.4
2023-02-15T11:43:53.561Z,92.1
2023-02-15T11:46:21.816Z,87.6
2023-02-15T11:48:50.072Z,95.4
2023-02-15T11:51:18.332Z,95.5
2023-02-15T11:53:46.585Z,88.1
2023-02-15T11:56:14.847Z,85.1
2023-02-15T11:58:43.099Z,83.5
2023-02-15T11:59:57.834Z,80.8
2023-02-15T12:01:11.373Z,83.5
2023-02-15T12:03:39.639Z,84.5
2023-02-15T12:06:07.896Z,94.7
2023-02-15T12:08:36.146Z,103.2
2023-02-15T12:13:32.658Z,86.7
2023-02-15T12:16:00.920Z,97.1
2023-02-15T12:18:29.174Z,96.8
2023-02-15T12:20:57.428Z,86.8
2023-02-15T12:23:25.693Z,98.6
2023-02-15T12:24:40.422Z,99.9
2023-02-15T12:25:53.965Z,103.3
2023-02-15T12:28:22.225Z,99.5
2023-02-15T12:30:50.473Z,95.9
2023-02-15T12:33:18.735Z,96.5
2023-02-15T12:35:46.996Z,103
2023-02-15T12:38:15.250Z,103.7
2023-02-15T12:40:43.502Z,99.6
2023-02-15T12:45:40.023Z,107.9
2023-02-15T12:48:08.271Z,102.1
2023-02-15T12:49:23.005Z,105.8
2023-02-15T12:50:36.551Z,104.3
2023-02-15T12:53:04.812Z,108.6
2023-02-15T12:55:33.060Z,106
2023-02-15T12:58:01.319Z,103.5
2023-02-15T13:00:29.582Z,103.1
2023-02-15T13:02:57.832Z,103.5
2023-02-15T13:05:26.090Z,104.1
2023-02-15T13:07:54.350Z,112.8
2023-02-15T13:10:22.600Z,111.4
2023-02-15T13:12:50.866Z,110.5
2023-02-15T13:15:19.121Z,114.3
2023-02-15T13:17:47.379Z,117.3
2023-02-15T13:20:15.639Z,110.3
2023-02-15T13:22:43.892Z,119.2
2023-02-15T13:25:12.145Z,119.5
2023-02-15T13:27:40.407Z,124.9
2023-02-15T13:30:08.664Z,114.5
2023-02-15T13:32:36.915Z,113.4
2023-02-15T13:35:05.173Z,108.6
2023-02-15T13:37:33.433Z,109.5
2023-02-15T13:38:48.181Z,110.6
2023-02-15T13:40:01.727Z,109
2023-02-15T13:42:29.981Z,112
2023-02-15T13:47:26.496Z,114
2023-02-15T13:49:54.748Z,116.5
2023-02-15T13:52:23.007Z,113.9
2023-02-15T13:54:51.269Z,111.1
2023-02-15T13:57:19.523Z,114
2023-02-15T13:59:47.775Z,119.3
2023-02-15T14:02:16.033Z,117.4
2023-02-15T14:03:30.770Z,116.4
2023-02-15T14:04:44.307Z,120.3
2023-02-15T14:07:12.570Z,117.9
2023-02-15T14:09:40.830Z,116.4
2023-02-15T14:12:09.085Z,123.6
2023-02-15T14:14:37.343Z,122.7
2023-02-15T14:19:33.855Z,118.9
2023-02-15T14:22:02.105Z,120.5
2023-02-15T14:24:30.371Z,116.8
2023-02-15T14:26:58.626Z,114.1
2023-02-15T14:28:13.357Z,112.7
2023-02-15T14:29:26.899Z,119.4
2023-02-15T14:31:55.152Z,117.7
2023-02-15T14:34:23.409Z,122.5
2023-02-15T14:36:51.668Z,117.5
2023-02-15T14:39:19.925Z,121
2023-02-15T14:41:48.187Z,127.8
2023-02-15T14:44:16.435Z,129.8
2023-02-15T14:46:44.693Z,122.4
2023-02-15T14:51:41.211Z,119.8
2023-02-15T14:52:55.939Z,123.4
2023-02-15T14:54:09.491Z,129.4
2023-02-15T14:56:37.747Z,123.6
2023-02-15T14:59:06.001Z,123.8
2023-02-15T15:01:34.260Z,119.5
2023-02-15T15:04:02.510Z,119.1
2023-02-15T15:06:30.769Z,120.8
2023-02-15T15:08:59.026Z,120.4
2023-02-15T15:11:27.288Z,116.9
2023-02-15T15:13:55.541Z,117
2023-02-15T15:16:23.798Z,113.6
2023-02-15T15:17:38.532Z,109.2
2023-02-15T15:21:20.562Z,108.3
2023-02-15T15:23:48.821Z,107.1
2023-02-15T15:26:17.078Z,106.6
2023-02-15T15:28:45.335Z,108.3
2023-02-15T15:31:13.593Z,117.9
2023-02-15T15:33:41.853Z,121.1
2023-02-15T15:36:10.107Z,126
2023-02-15T15:38:38.363Z,128
2023-02-15T15:41:06.621Z,129
2023-02-15T15:42:21.354Z,132.5
2023-02-15T15:43:34.899Z,136.7
2023-02-15T15:46:03.157Z,138.7
2023-02-15T15:48:31.408Z,143.6
2023-02-15T15:53:27.926Z,138.5
2023-02-15T15:55:56.177Z,156.2
2023-02-15T15:58:24.441Z,140.8
2023-02-15T16:00:52.689Z,143.7
2023-02-15T16:03:20.951Z,136.3
2023-02-15T16:05:49.203Z,136.3
2023-02-15T16:07:03.940Z,134.9
2023-02-15T16:08:17.479Z,136.3
2023-02-15T16:10:45.739Z,143.3
2023-02-15T16:13:14.001Z,140.4
2023-02-15T16:15:42.251Z,139.7
2023-02-15T16:18:10.510Z,149.3
2023-02-15T16:20:38.764Z,147.1
2023-02-15T16:25:35.282Z,141.1
2023-02-15T16:28:03.534Z,132.6
2023-02-15T16:30:31.792Z,135.5
2023-02-15T16:31:46.522Z,129.6
2023-02-15T16:33:00.073Z,127.9
2023-02-15T16:35:28.330Z,128.1
2023-02-15T16:37:56.587Z,127.1
2023-02-15T16:40:24.845Z,121.4
2023-02-15T16:42:53.095Z,122.7
2023-02-15T16:45:21.359Z,121.1
2023-02-15T16:47:49.611Z,115.3
2023-02-15T16:50:17.867Z,114.8
2023-02-15T16:52:46.128Z,108.1
2023-02-15T16:56:29.118Z,104.2
2023-02-15T16:57:42.661Z,114
2023-02-15T17:00:10.920Z,106.7
2023-02-15T17:02:39.168Z,102.2
2023-02-15T17:05:07.432Z,101.3
2023-02-15T17:07:35.688Z,99.9
2023-02-15T17:10:03.946Z,98.4
2023-02-15T17:12:32.202Z,99.6
2023-02-15T17:15:00.458Z,95.3
2023-02-15T17:17:28.710Z,91.7
2023-02-15T17:19:56.976Z,95.6
2023-02-15T17:21:11.702Z,95
2023-02-15T17:22:25.244Z,88.3
2023-02-15T17:27:21.763Z,88.3
2023-02-15T17:29:50.018Z,89.4
2023-02-15T17:32:18.277Z,86.2
2023-02-15T17:34:46.528Z,89.7
2023-02-15T17:37:14.792Z,91.1
2023-02-15T17:39:43.048Z,86.2
2023-02-15T17:42:11.301Z,99.2
2023-02-15T17:44:39.557Z,114.8
2023-02-15T17:45:54.293Z,101
2023-02-15T17:47:07.840Z,111.2
2023-02-15T17:49:36.089Z,90.4
2023-02-15T17:52:04.345Z,86.7
2023-02-15T17:54:32.605Z,82.5
2023-02-15T17:59:29.122Z,84.1
2023-02-15T18:01:57.372Z,82.3
2023-02-15T18:04:25.634Z,124.3
2023-02-15T18:06:53.892Z,87.6
2023-02-15T18:09:22.148Z,87
2023-02-15T18:10:36.886Z,84.8
2023-02-15T18:11:50.427Z,95.9
2023-02-15T18:14:18.679Z,97.6
2023-02-15T18:16:46.941Z,92.9
2023-02-15T18:19:15.198Z,87.7
2023-02-15T18:21:43.458Z,81.1
2023-02-15T18:24:11.711Z,89.5
2023-02-15T18:26:39.968Z,82.5
2023-02-15T18:31:36.228Z,84.5
2023-02-15T18:34:04.488Z,81.2
2023-02-15T18:35:19.218Z,81
2023-02-15T18:36:32.758Z,77.7
2023-02-15T18:39:01.012Z,79.2
2023-02-15T18:41:29.276Z,82.1
2023-02-15T18:43:57.528Z,84.6
2023-02-15T18:46:25.789Z,80.6
2023-02-15T18:48:54.047Z,112.2
2023-02-15T18:51:22.299Z,103.6
2023-02-15T18:53:50.563Z,84
2023-02-15T18:56:18.823Z,84.2
2023-02-15T18:58:47.071Z,86.3
2023-02-15T19:01:15.333Z,76.5
2023-02-15T19:03:43.595Z,79.3
2023-02-15T19:06:11.853Z,75.9
2023-02-15T19:08:40.104Z,71.7
2023-02-15T19:11:08.360Z,68.8
2023-02-15T19:13:36.624Z,74.4
2023-02-15T19:16:04.876Z,71.3
2023-02-15T19:18:33.132Z,70.8
2023-02-15T19:21:01.395Z,72.6
2023-02-15T19:23:29.652Z,70.9
2023-02-15T19:24:44.404Z,68.9
2023-02-15T19:25:57.949Z,67.8
2023-02-15T19:28:26.202Z,70.2
2023-02-15T19:33:22.722Z,72.6
2023-02-15T19:35:50.976Z,69.2
2023-02-15T19:38:19.236Z,64.8
2023-02-15T19:40:47.496Z,67.5
2023-02-15T19:43:15.752Z,65.3
2023-02-15T19:45:44.008Z,64.3
2023-02-15T19:48:12.267Z,64.3
2023-02-15T19:49:27.001Z,65.2
2023-02-15T19:50:40.540Z,66.2
2023-02-15T19:53:08.799Z,69.9
2023-02-15T19:55:37.057Z,64.4
2023-02-15T19:58:05.313Z,64.6
2023-02-15T20:00:33.572Z,69
2023-02-15T20:05:30.093Z,56.3
2023-02-15T20:07:58.351Z,60.9
2023-02-15T20:10:26.599Z,64.7
2023-02-15T20:12:54.858Z,62.8
2023-02-15T20:14:09.596Z,63.6
2023-02-15T20:15:23.138Z,63.8
2023-02-15T20:17:51.400Z,59.3
2023-02-15T20:20:19.658Z,61.1
2023-02-15T20:22:47.912Z,62.6
2023-02-15T20:25:16.165Z,62.9
2023-02-15T20:27:44.426Z,62.6
2023-02-15T20:30:12.691Z,63.2
2023-02-15T20:32:40.954Z,63
2023-02-15T20:37:37.472Z,64.3
2023-02-15T20:38:52.204Z,66.3
2023-02-15T20:40:05.748Z,61
2023-02-15T20:42:34.003Z,62
2023-02-15T20:45:02.258Z,63.7
2023-02-15T20:47:30.515Z,60.7
2023-02-15T20:49:58.779Z,58.1
2023-02-15T20:52:27.034Z,57.9
2023-02-15T20:54:55.295Z,60.9
2023-02-15T20:57:23.549Z,57.1
2023-02-15T20:59:51.803Z,58.1
2023-02-15T21:02:20.063Z,56.9
2023-02-15T21:03:34.797Z,56.9
2023-02-15T21:07:16.833Z,55.4
2023-02-15T21:09:45.082Z,56
2023-02-15T21:12:13.344Z,54.8
2023-02-15T21:14:41.602Z,54.9
2023-02-15T21:17:09.855Z,54.4
2023-02-15T21:19:38.119Z,54
2023-02-15T21:22:06.367Z,54.9
2023-02-15T21:24:34.627Z,53.1
2023-02-15T21:27:02.884Z,54.8
2023-02-15T21:28:17.622Z,54.2
2023-02-15T21:29:31.150Z,55
2023-02-15T21:31:59.400Z,54.5
2023-02-15T21:34:27.665Z,53.1
2023-02-15T21:39:24.177Z,53.5
2023-02-15T21:41:52.429Z,54.7
2023-02-15T21:44:20.687Z,52.7
2023-02-15T21:46:48.946Z,58.5
2023-02-15T21:49:17.204Z,59.9
2023-02-15T21:51:45.457Z,57.7
2023-02-15T21:53:00.195Z,62
2023-02-15T21:54:13.734Z,58.4
2023-02-15T21:56:42.001Z,57.5
2023-02-15T21:59:10.255Z,53.5
2023-02-15T22:01:38.507Z,52.6
2023-02-15T22:04:06.771Z,51.4
2023-02-15T22:06:35.024Z,53.2
2023-02-15T22:11:31.542Z,52.1
2023-02-15T22:13:59.799Z,51.9
2023-02-15T22:16:28.059Z,53.3
2023-02-15T22:17:42.783Z,53.5
2023-02-15T22:18:56.331Z,51.3
2023-02-15T22:21:24.592Z,52.8
2023-02-15T22:23:52.848Z,53.1
2023-02-15T22:26:21.107Z,51.9
2023-02-15T22:28:49.364Z,49.7
2023-02-15T22:31:17.616Z,49.6
2023-02-15T22:33:45.876Z,51.9
2023-02-15T22:36:14.133Z,51.7
2023-02-15T22:38:42.385Z,51.3
2023-02-15T22:42:25.381Z,49
2023-02-15T22:43:38.927Z,50.5
2023-02-15T22:46:07.187Z,49.5
2023-02-15T22:48:35.439Z,49.5
2023-02-15T22:51:03.701Z,48
2023-02-15T22:53:31.959Z,48
2023-02-15T22:56:00.212Z,48.4
2023-02-15T22:58:28.468Z,48.1
2023-02-15T23:00:56.726Z,48
2023-02-15T23:03:24.984Z,48.5
2023-02-15T23:05:53.245Z,47.7
2023-02-15T23:07:07.977Z,46.2
2023-02-15T23:08:21.519Z,47
2023-02-15T23:13:18.037Z,47
2023-02-15T23:15:46.291Z,48.2
2023-02-15T23:18:14.545Z,47.4
2023-02-15T23:20:42.809Z,48.3
2023-02-15T23:23:11.069Z,47.7
2023-02-15T23:25:39.320Z,46.3
2023-02-15T23:28:07.576Z,47
2023-02-15T23:30:35.839Z,46.5
2023-02-15T23:31:50.572Z,47.8
2023-02-15T23:33:04.117Z,47.1
2023-02-15T23:35:32.373Z,46.8
2023-02-15T23:38:00.632Z,46.9
2023-02-15T23:40:28.885Z,44.9
2023-02-15T23:45:25.405Z,46
2023-02-15T23:47:53.654Z,46.7
2023-02-15T23:50:21.920Z,46.4
2023-02-15T23:52:50.172Z,45.4
2023-02-15T23:55:18.432Z,48.1
2023-02-15T23:56:33.166Z,47.2
2023-02-15T23:57:46.707Z,48.4
